createdAt,value
2022-11-24T00:01:07.689Z,28.38
2022-11-24T00:04:11.781Z,29.05
2022-11-24T00:07:14.992Z,29.38
2022-11-24T00:10:21.478Z,26.83
2022-11-24T00:13:25.514Z,28.10
2022-11-24T00:16:36.583Z,28.65
2022-11-24T00:19:39.185Z,31.65
2022-11-24T00:22:41.648Z,32.22
2022-11-24T00:25:44.195Z,31.45
2022-11-24T00:28:48.360Z,32.50
2022-11-24T00:31:50.791Z,30.55
2022-11-24T00:34:54.007Z,34.40
2022-11-24T00:37:56.512Z,37.30
2022-11-24T00:40:58.952Z,40.25
2022-11-24T00:44:01.641Z,34.80
2022-11-24T00:47:04.177Z,38.13
2022-11-24T00:50:07.350Z,36.45
2022-11-24T00:53:10.546Z,35.63
2022-11-24T00:56:13.610Z,39.75
2022-11-24T00:59:17.041Z,36.33
2022-11-24T01:02:19.681Z,39.92
2022-11-24T01:05:23.074Z,38.65
2022-11-24T01:08:25.661Z,35.03
2022-11-24T01:11:54.573Z,40.22
2022-11-24T01:14:58.878Z,34.83
2022-11-24T01:18:01.468Z,41.88
2022-11-24T01:21:09.864Z,43.80
2022-11-24T01:24:13.601Z,39.78
2022-11-24T01:27:16.583Z,41.70
2022-11-24T01:30:22.640Z,41.50
2022-11-24T01:33:26.239Z,42.95
2022-11-24T01:36:29.603Z,42.65
2022-11-24T01:39:32.382Z,47.40
2022-11-24T01:42:50.695Z,46.58
2022-11-24T01:45:54.823Z,48.33
2022-11-24T01:49:11.932Z,48.72
2022-11-24T01:52:20.039Z,48.75
2022-11-24T01:55:28.811Z,47.03
2022-11-24T01:58:36.792Z,51.35
2022-11-24T02:01:40.440Z,51.20
2022-11-24T02:04:45.494Z,49.67
2022-11-24T02:07:48.793Z,53.08
2022-11-24T02:10:54.884Z,49.25
2022-11-24T02:13:58.449Z,50.45
2022-11-24T02:17:01.736Z,58.90
2022-11-24T02:20:07.957Z,56.33
2022-11-24T02:23:28.527Z,61.50
2022-11-24T02:26:48.465Z,58.15
2022-11-24T02:29:51.784Z,61.20
2022-11-24T02:32:55.339Z,51.60
2022-11-24T02:35:58.840Z,53.72
2022-11-24T02:39:03.621Z,53.58
2022-11-24T02:42:12.944Z,61.53
2022-11-24T02:45:16.682Z,55.33
2022-11-24T02:48:19.685Z,62.60
2022-11-24T02:51:23.223Z,52.35
2022-11-24T02:54:25.857Z,67.22
2022-11-24T02:57:28.378Z,68.05
2022-11-24T03:00:30.912Z,65.18
2022-11-24T03:03:33.629Z,67.03
2022-11-24T03:06:36.760Z,69.57
2022-11-24T03:09:39.403Z,61.00
2022-11-24T03:12:43.157Z,70.57
2022-11-24T03:15:45.538Z,65.50
2022-11-24T03:18:51.176Z,69.17
2022-11-24T03:21:53.655Z,72.75
2022-11-24T03:24:56.748Z,68.45
2022-11-24T03:27:59.732Z,66.95
2022-11-24T03:31:02.765Z,65.22
2022-11-24T03:34:06.329Z,54.00
2022-11-24T03:37:09.807Z,62.83
2022-11-24T03:40:13.402Z,65.75
2022-11-24T03:43:15.951Z,61.97
2022-11-24T03:46:19.356Z,64.40
2022-11-24T03:49:22.073Z,61.23
2022-11-24T03:52:26.672Z,62.78
2022-11-24T03:55:30.762Z,61.10
2022-11-24T03:58:33.788Z,64.60
2022-11-24T04:01:36.270Z,65.65
2022-11-24T04:04:39.344Z,65.07
2022-11-24T04:07:42.066Z,70.72
2022-11-24T04:10:44.822Z,68.00
2022-11-24T04:13:48.303Z,65.47
2022-11-24T04:16:51.297Z,70.90
2022-11-24T04:19:54.350Z,67.77
2022-11-24T04:22:57.790Z,74.10
2022-11-24T04:26:00.236Z,73.85
2022-11-24T04:29:03.383Z,73.25
2022-11-24T04:32:06.448Z,72.88
2022-11-24T04:35:10.485Z,79.97
2022-11-24T04:38:13.864Z,74.95
2022-11-24T04:41:37.317Z,81.45
2022-11-24T04:44:39.846Z,75.82
2022-11-24T04:47:42.286Z,84.35
2022-11-24T04:50:44.822Z,89.83
2022-11-24T04:53:49.169Z,83.07
2022-11-24T04:56:52.662Z,83.45
2022-11-24T04:59:55.428Z,81.97
2022-11-24T05:02:58.928Z,84.88
2022-11-24T05:06:02.912Z,74.93
2022-11-24T05:09:08.509Z,82.82
2022-11-24T05:12:11.888Z,78.75
2022-11-24T05:15:14.350Z,78.35
2022-11-24T05:18:16.919Z,81.45
2022-11-24T05:21:19.527Z,88.70
2022-11-24T05:24:22.877Z,78.45
2022-11-24T05:27:26.353Z,78.85
2022-11-24T05:30:30.995Z,76.82
2022-11-24T05:33:35.023Z,77.68
2022-11-24T05:36:57.700Z,74.57
2022-11-24T05:40:00.738Z,69.57
2022-11-24T05:43:03.691Z,74.32
2022-11-24T05:46:06.264Z,80.45
2022-11-24T05:49:08.858Z,75.07
2022-11-24T05:52:11.375Z,78.03
2022-11-24T05:55:15.568Z,70.45
2022-11-24T05:58:18.289Z,64.63
2022-11-24T06:01:20.903Z,68.18
2022-11-24T06:04:23.333Z,62.88
2022-11-24T06:07:25.814Z,59.37
2022-11-24T06:10:28.594Z,65.32
2022-11-24T06:13:31.137Z,71.15
2022-11-24T06:16:34.446Z,60.97
2022-11-24T06:19:41.852Z,61.97
2022-11-24T06:22:45.925Z,59.60
2022-11-24T06:25:51.607Z,61.30
2022-11-24T06:28:55.008Z,56.70
2022-11-24T06:31:57.605Z,69.22
2022-11-24T06:35:01.053Z,58.92
2022-11-24T06:38:05.220Z,57.83
2022-11-24T06:41:13.149Z,54.28
2022-11-24T06:44:15.667Z,63.53
2022-11-24T06:47:24.579Z,58.78
2022-11-24T06:50:44.348Z,54.03
2022-11-24T06:57:26.505Z,52.65
2022-11-24T07:00:35.026Z,53.67
2022-11-24T07:03:42.230Z,52.10
2022-11-24T07:06:45.224Z,54.97
2022-11-24T07:09:48.673Z,58.77
2022-11-24T07:12:52.187Z,56.08
2022-11-24T07:15:55.582Z,55.50
2022-11-24T07:18:59.811Z,53.00
2022-11-24T07:22:03.641Z,55.25
2022-11-24T07:25:09.855Z,53.97
2022-11-24T07:28:12.647Z,54.17
2022-11-24T07:32:30.123Z,54.00
2022-11-24T07:41:47.336Z,49.60
2022-11-24T07:44:57.973Z,54.07
2022-11-24T07:48:17.226Z,51.72
2022-11-24T07:58:10.716Z,54.55
2022-11-24T08:01:25.678Z,49.22
2022-11-24T08:04:42.467Z,46.30
2022-11-24T08:07:45.760Z,51.55
2022-11-24T08:10:48.535Z,51.53
2022-11-24T08:13:51.539Z,57.20
2022-11-24T08:16:54.938Z,54.80
2022-11-24T08:19:58.204Z,54.47
2022-11-24T08:23:11.149Z,53.20
2022-11-24T08:26:23.499Z,54.80
2022-11-24T08:29:29.697Z,55.55
2022-11-24T08:32:33.550Z,56.40
2022-11-24T08:36:11.153Z,49.60
2022-11-24T08:39:14.204Z,52.10
2022-11-24T08:42:17.834Z,59.47
2022-11-24T08:45:26.036Z,59.38
2022-11-24T08:53:13.994Z,53.23
2022-11-24T08:56:19.689Z,54.90
2022-11-24T09:00:46.252Z,56.05
2022-11-24T09:04:12.118Z,54.22
2022-11-24T09:07:27.552Z,58.08
2022-11-24T09:12:18.831Z,56.53
2022-11-24T09:15:44.374Z,55.90
2022-11-24T09:28:58.696Z,56.25
2022-11-24T09:43:56.956Z,120.60
2022-11-24T09:49:14.214Z,55.70
2022-11-24T09:52:39.338Z,45.13
2022-11-24T09:55:58.178Z,48.50
2022-11-24T09:59:34.524Z,46.55
2022-11-24T10:03:21.231Z,46.50
2022-11-24T10:06:35.267Z,43.58
2022-11-24T10:09:51.957Z,48.45
2022-11-24T10:13:26.563Z,51.00
2022-11-24T10:16:51.523Z,46.28
2022-11-24T10:20:20.359Z,44.22
2022-11-24T10:28:52.885Z,51.40
2022-11-24T10:32:00.921Z,46.70
2022-11-24T10:35:18.601Z,47.83
2022-11-24T10:44:20.632Z,44.92
2022-11-24T10:47:26.738Z,62.53
2022-11-24T10:50:36.367Z,44.47
2022-11-24T10:53:41.067Z,47.20
2022-11-24T10:56:46.196Z,43.38
2022-11-24T10:59:52.918Z,47.35
2022-11-24T11:03:23.898Z,42.08
2022-11-24T11:06:32.392Z,40.77
2022-11-24T11:09:36.082Z,42.30
2022-11-24T11:12:44.954Z,45.22
2022-11-24T11:15:49.345Z,36.50
2022-11-24T11:18:53.785Z,39.92
2022-11-24T11:22:03.716Z,38.60
2022-11-24T11:25:19.524Z,40.80
2022-11-24T11:28:28.093Z,38.33
2022-11-24T11:31:41.368Z,39.40
2022-11-24T11:34:46.768Z,33.88
2022-11-24T11:37:51.710Z,36.87
2022-11-24T11:40:55.060Z,39.40
2022-11-24T11:44:22.711Z,36.00
2022-11-24T11:47:30.074Z,33.08
2022-11-24T11:51:14.853Z,36.20
2022-11-24T11:54:45.517Z,30.50
2022-11-24T11:58:05.566Z,31.48
2022-11-24T12:01:26.952Z,28.02
2022-11-24T12:04:43.957Z,32.03
2022-11-24T12:08:10.768Z,30.65
2022-11-24T12:11:34.565Z,26.13
2022-11-24T12:14:53.222Z,27.20
2022-11-24T12:18:56.433Z,30.92
2022-11-24T12:21:57.815Z,31.33
2022-11-24T12:25:32.695Z,32.05
2022-11-24T12:28:44.613Z,29.60
2022-11-24T12:32:26.613Z,27.25
2022-11-24T12:35:39.345Z,29.48
2022-11-24T12:38:42.790Z,28.48
2022-11-24T12:41:46.199Z,25.08
2022-11-24T12:45:13.181Z,25.70
2022-11-24T12:48:29.416Z,30.42
2022-11-24T12:51:39.881Z,25.83
2022-11-24T12:54:42.765Z,26.50
2022-11-24T12:58:36.697Z,27.23
2022-11-24T13:02:00.906Z,26.70
2022-11-24T13:05:33.359Z,29.48
2022-11-24T13:08:39.264Z,25.88
2022-11-24T13:11:44.744Z,25.80
2022-11-24T13:14:49.156Z,24.20
2022-11-24T13:18:07.139Z,25.20
2022-11-24T13:21:48.152Z,26.70
2022-11-24T13:25:22.664Z,24.77
2022-11-24T13:29:09.249Z,23.90
2022-11-24T13:32:23.458Z,29.50
2022-11-24T13:35:27.545Z,27.43
2022-11-24T13:38:42.037Z,23.55
2022-11-24T13:41:47.947Z,25.13
2022-11-24T13:44:52.725Z,30.15
2022-11-24T13:47:55.469Z,25.05
2022-11-24T13:51:04.222Z,24.13
2022-11-24T13:54:16.281Z,30.80
2022-11-24T13:57:40.138Z,23.83
2022-11-24T14:01:11.590Z,22.45
2022-11-24T14:05:30.052Z,26.13
2022-11-24T14:08:38.425Z,25.47
2022-11-24T14:11:42.142Z,27.15
2022-11-24T14:14:47.874Z,23.52
2022-11-24T14:17:53.149Z,26.30
2022-11-24T14:20:56.905Z,24.80
2022-11-24T14:24:04.279Z,25.10
2022-11-24T14:27:14.596Z,28.70
2022-11-24T14:30:20.941Z,25.88
2022-11-24T14:33:25.815Z,25.83
2022-11-24T14:36:28.655Z,25.70
2022-11-24T14:39:41.382Z,27.60
2022-11-24T14:42:50.641Z,29.05
2022-11-24T14:46:00.847Z,26.80
2022-11-24T14:49:04.932Z,26.33
2022-11-24T14:52:18.346Z,27.45
2022-11-24T14:55:28.179Z,26.87
2022-11-24T14:58:37.675Z,28.00
2022-11-24T15:01:43.385Z,27.75
2022-11-24T15:05:06.963Z,28.85
2022-11-24T15:08:14.511Z,30.15
2022-11-24T15:11:18.533Z,28.77
2022-11-24T15:14:52.197Z,24.38
2022-11-24T15:18:02.834Z,50.22
2022-11-24T15:21:06.580Z,28.35
2022-11-24T15:24:19.312Z,32.58
2022-11-24T15:27:21.941Z,25.87
2022-11-24T15:30:25.260Z,30.25
2022-11-24T15:33:28.614Z,30.40
2022-11-24T15:36:32.059Z,25.17
2022-11-24T15:39:34.915Z,27.92
2022-11-24T15:42:38.311Z,29.73
2022-11-24T15:45:41.875Z,35.38
2022-11-24T15:48:45.374Z,31.45
2022-11-24T15:51:48.543Z,29.38
2022-11-24T15:54:56.235Z,28.55
2022-11-24T15:57:58.860Z,30.03
2022-11-24T16:01:02.432Z,26.60
2022-11-24T16:04:05.782Z,28.73
2022-11-24T16:07:12.406Z,30.10
2022-11-24T16:10:28.360Z,31.20
2022-11-24T16:13:31.115Z,29.50
2022-11-24T16:16:33.819Z,30.75
2022-11-24T16:19:41.607Z,31.70
2022-11-24T16:22:45.146Z,28.35
2022-11-24T16:25:47.770Z,33.20
2022-11-24T16:28:50.525Z,26.10
2022-11-24T16:31:55.079Z,29.92
2022-11-24T16:34:58.367Z,32.35
2022-11-24T16:38:01.102Z,32.13
2022-11-24T16:41:04.181Z,30.10
2022-11-24T16:44:06.937Z,32.30
2022-11-24T16:47:12.691Z,31.02
2022-11-24T16:50:18.190Z,32.95
2022-11-24T16:53:21.420Z,34.35
2022-11-24T16:56:24.320Z,31.85
2022-11-24T16:59:27.052Z,30.70
2022-11-24T17:02:29.970Z,30.08
2022-11-24T17:05:32.639Z,30.35
2022-11-24T17:08:38.128Z,31.58
2022-11-24T17:11:41.545Z,32.13
2022-11-24T17:14:52.689Z,27.70
2022-11-24T17:18:24.012Z,35.25
2022-11-24T17:21:28.802Z,35.28
2022-11-24T17:24:32.226Z,36.47
2022-11-24T17:27:35.044Z,37.00
2022-11-24T17:30:38.259Z,31.00
2022-11-24T17:33:40.859Z,33.10
2022-11-24T17:36:46.105Z,35.83
2022-11-24T17:40:12.569Z,37.40
2022-11-24T17:43:13.364Z,32.65
2022-11-24T17:46:19.965Z,34.83
2022-11-24T17:49:23.632Z,33.45
2022-11-24T17:52:26.324Z,31.35
2022-11-24T17:55:29.475Z,35.30
2022-11-24T17:58:39.753Z,32.50
2022-11-24T18:01:45.367Z,30.73
2022-11-24T18:04:49.075Z,28.75
2022-11-24T18:07:51.634Z,33.53
2022-11-24T18:10:54.318Z,30.33
2022-11-24T18:14:01.138Z,32.95
2022-11-24T18:17:04.629Z,29.83
2022-11-24T18:20:07.928Z,28.35
2022-11-24T18:23:11.520Z,32.10
2022-11-24T18:26:16.220Z,31.10
2022-11-24T18:29:19.541Z,33.42
2022-11-24T18:32:22.157Z,31.30
2022-11-24T18:35:24.792Z,33.50
2022-11-24T18:38:28.569Z,33.95
2022-11-24T18:41:32.485Z,32.42
2022-11-24T18:44:36.390Z,32.60
2022-11-24T18:47:39.364Z,32.83
2022-11-24T18:50:44.573Z,31.73
2022-11-24T18:53:53.482Z,37.90
2022-11-24T18:57:01.747Z,33.70
2022-11-24T19:00:08.324Z,33.58
2022-11-24T19:03:11.041Z,36.87
2022-11-24T19:06:19.040Z,33.40
2022-11-24T19:09:23.004Z,36.60
2022-11-24T19:12:26.561Z,37.25
2022-11-24T19:15:33.993Z,34.08
2022-11-24T19:18:37.633Z,35.10
2022-11-24T19:21:43.331Z,34.45
2022-11-24T19:24:46.710Z,37.25
2022-11-24T19:27:49.412Z,37.28
2022-11-24T19:30:52.152Z,36.53
2022-11-24T19:33:58.049Z,35.23
2022-11-24T19:37:00.947Z,36.83
2022-11-24T19:40:05.188Z,34.35
2022-11-24T19:43:08.587Z,39.35
2022-11-24T19:46:14.770Z,37.22
2022-11-24T19:49:17.327Z,38.10
2022-11-24T19:52:20.129Z,33.17
2022-11-24T19:55:23.589Z,38.80
2022-11-24T19:58:26.544Z,34.80
2022-11-24T20:01:39.883Z,37.05
2022-11-24T20:04:43.771Z,37.27
2022-11-24T20:07:46.508Z,37.90
2022-11-24T20:10:50.238Z,37.80
2022-11-24T20:13:53.661Z,37.45
2022-11-24T20:16:57.218Z,41.70
2022-11-24T20:20:00.681Z,37.00
2022-11-24T20:23:03.520Z,37.42
2022-11-24T20:26:19.582Z,38.72
2022-11-24T20:29:23.173Z,37.97
2022-11-24T20:32:28.222Z,37.42
2022-11-24T20:35:30.878Z,35.83
2022-11-24T20:38:34.923Z,36.08
2022-11-24T20:41:40.081Z,36.20
2022-11-24T20:44:42.711Z,39.08
2022-11-24T20:47:45.381Z,40.80
2022-11-24T20:50:51.270Z,35.23
2022-11-24T20:53:59.563Z,39.45
2022-11-24T20:57:02.362Z,42.05
2022-11-24T21:00:06.576Z,38.60
2022-11-24T21:03:10.744Z,41.97
2022-11-24T21:06:14.726Z,35.03
2022-11-24T21:09:19.085Z,37.47
2022-11-24T21:12:22.182Z,37.33
2022-11-24T21:15:25.741Z,36.45
2022-11-24T21:18:28.310Z,34.40
2022-11-24T21:21:35.269Z,34.53
2022-11-24T21:24:38.723Z,37.60
2022-11-24T21:27:42.385Z,40.38
2022-11-24T21:30:45.688Z,36.05
2022-11-24T21:33:50.793Z,37.00
2022-11-24T21:36:53.408Z,40.47
2022-11-24T21:39:55.953Z,39.80
2022-11-24T21:42:59.701Z,37.38
2022-11-24T21:46:06.262Z,37.30
2022-11-24T21:49:09.131Z,39.03
2022-11-24T21:52:12.812Z,37.83
2022-11-24T21:55:15.530Z,40.10
2022-11-24T21:58:18.768Z,38.22
2022-11-24T22:01:28.240Z,34.42
2022-11-24T22:04:32.455Z,38.63
2022-11-24T22:07:35.889Z,39.33
2022-11-24T22:10:38.596Z,40.30
2022-11-24T22:13:43.586Z,41.25
2022-11-24T22:16:46.973Z,38.72
2022-11-24T22:19:50.286Z,38.72
2022-11-24T22:22:52.948Z,44.30
2022-11-24T22:25:55.654Z,37.67
2022-11-24T22:28:58.448Z,41.58
2022-11-24T22:32:01.856Z,37.60
2022-11-24T22:35:05.973Z,40.08
2022-11-24T22:38:09.341Z,39.70
2022-11-24T22:41:17.436Z,40.95
2022-11-24T22:44:19.985Z,45.05
2022-11-24T22:47:22.523Z,40.40
2022-11-24T22:50:25.152Z,39.08
2022-11-24T22:53:28.515Z,39.80
2022-11-24T22:56:33.020Z,38.95
2022-11-24T22:59:36.009Z,39.47
2022-11-24T23:02:38.632Z,37.65
2022-11-24T23:05:41.515Z,38.28
2022-11-24T23:08:44.772Z,37.50
2022-11-24T23:11:49.120Z,36.22
2022-11-24T23:14:51.714Z,34.80
2022-11-24T23:17:54.832Z,34.05
2022-11-24T23:20:57.645Z,35.75
2022-11-24T23:24:02.447Z,36.83
2022-11-24T23:27:05.511Z,37.22
2022-11-24T23:30:08.824Z,34.28
2022-11-24T23:33:11.446Z,37.17
2022-11-24T23:36:19.839Z,36.35
2022-11-24T23:39:24.380Z,36.17
2022-11-24T23:42:27.898Z,35.78
2022-11-24T23:45:30.586Z,33.75
2022-11-24T23:48:36.684Z,38.53
2022-11-24T23:51:42.044Z,38.80
2022-11-24T23:54:44.723Z,33.23
2022-11-24T23:57:47.295Z,35.05
